首页
METAR-TAF:

METAR-TAF

机场 :

阿尔及尔胡阿里·布迈丁机场

阿爾及爾, 阿尔及利亚

纬度: 36-43N, 经度: 003-15E, 海拔: 25米

当前天气观测

该预报发布于33分钟前的09:00 UTC
风速11节,风向,在东北东转东南之间变化
温度 28°C
湿度 62%
气压 1019 hPa
能见度10公里或以上
散云层高于2300英尺

METAR: DAAG 190900Z 09011KT 050V120 9999 SCT023 28/20 Q1019

时间: 10:33 (09:33 UTC)

预报

该预报发布于4小时和33分钟前的05:00 UTC
预报有效从19日的 06点(UTC)到 20日的 06点(UTC)
风速2节,风向多变
能见度10公里或以上
少量云层高于2000英尺
散云层高于8000英尺
几率 30% :
短暂存在
从 19日的 07点(UTC)到 19日的 11点(UTC)
少量云层高于2300英尺, 积雨云.
成为
从 19日的 08点(UTC)到 19日的 11点(UTC)
风速10节,风向东北
成为
从 19日的 18点(UTC)到 19日的 21点(UTC)
风速2节,风向多变

TAF: DAAG 190500Z 1906/2006 VRB02KT 9999 FEW020 SCT080 PROB30 TEMPO 1907/1911 FEW023CB BECMG 1908/1911 04010KT BECMG 1918/1921 VRB02KT

超过4000个机场的气象观测和天气预报(METAR&TAF报告)。

可查询的气象台以黄色和红色小点在地图上表示。

将鼠标移到小点上方,可查看气象台名称。

然后点击查看天气观测和预报。

如需切换地图:点击带黑十字的绿色按钮放大地图;点击带横线的绿色按钮缩小地图;或者点击绿色箭头查看邻近地区的地图。


METAR-TAF: